Tyrone, Pennsylvania
Current Conditions -  °F | °C
As of 12:53 PM on Friday 24 Oct 2014 (Local Time) from KUNV Reporting Station
Clear Clear  
Wind Chill: 59°   Ceiling: Unl
Heat Index: 59°   Visibility: 10mi
Dew Point: 34°   Wind: 12mph
Humidity: 39%   Direction: 310°NW
Pressure: 29.97"   Gusts: NA
Location:  40.68°N, 78.24°W
Report Text: KUNV 241653Z 31010KT 10SM SKC 15/01 A2997
Loading
Personal Weather Stations






























Interactive Weather Map New forecast layout! Learn more

10-Day Weather Forecast

Advertisements
Track Severe Weather on mobile